Terminal Aerodrome Forecast
Issued by NWS

Home | Current Version | Previous Version | Text Only | Print | Product List | Glossary On
Versions: 1 2 3 4 5 6 7 8 9 10 11 12 13 14 15 16
000
FTUS46 KSEW 252300
TAFBLI
TAF
KBLI 252327Z 2600/2624 VRB03KT P6SM SCT035 SCT070
     FM260300 VRB03KT P6SM SCT035 BKN070
     FM262000 14004KT P6SM SCT040 BKN080=

USA.gov is the U.S. government's official web portal to all federal, state and local government web resources and services.